sensor_id;sensor_type;location;lat;lon;timestamp;pressure;altitude;pressure_sealevel;temperature;humidity
1207;BME280;593;53.184;8.216;2023-02-10T00:01:17;102894.41;;;6.06;100.00
1207;BME280;593;53.184;8.216;2023-02-10T00:03:43;102901.88;;;6.04;100.00
1207;BME280;593;53.184;8.216;2023-02-10T00:06:10;102906.44;;;6.04;100.00
1207;BME280;593;53.184;8.216;2023-02-10T00:08:36;102906.66;;;6.02;100.00
1207;BME280;593;53.184;8.216;2023-02-10T00:11:05;102901.47;;;6.01;100.00
1207;BME280;593;53.184;8.216;2023-02-10T00:13:31;102908.72;;;6.00;100.00
1207;BME280;593;53.184;8.216;2023-02-10T00:15:58;102906.41;;;5.97;100.00
1207;BME280;593;53.184;8.216;2023-02-10T00:18:24;102916.59;;;5.95;100.00
1207;BME280;593;53.184;8.216;2023-02-10T00:20:49;102911.78;;;5.91;100.00
1207;BME280;593;53.184;8.216;2023-02-10T00:23:15;102919.03;;;5.90;100.00
1207;BME280;593;53.184;8.216;2023-02-10T00:25:40;102914.03;;;5.87;100.00
1207;BME280;593;53.184;8.216;2023-02-10T00:28:06;102916.94;;;5.86;100.00
1207;BME280;593;53.184;8.216;2023-02-10T00:30:32;102923.53;;;5.83;100.00
1207;BME280;593;53.184;8.216;2023-02-10T00:32:58;102913.50;;;5.77;100.00
1207;BME280;593;53.184;8.216;2023-02-10T00:35:23;102922.44;;;5.77;100.00
1207;BME280;593;53.184;8.216;2023-02-10T00:37:48;102924.50;;;5.75;100.00
1207;BME280;593;53.184;8.216;2023-02-10T00:40:15;102917.00;;;5.71;100.00
1207;BME280;593;53.184;8.216;2023-02-10T00:42:40;102923.19;;;5.71;100.00
1207;BME280;593;53.184;8.216;2023-02-10T00:45:06;102907.34;;;5.62;100.00
1207;BME280;593;53.184;8.216;2023-02-10T00:47:31;102928.16;;;5.68;100.00
1207;BME280;593;53.184;8.216;2023-02-10T00:49:56;102925.66;;;5.66;100.00
1207;BME280;593;53.184;8.216;2023-02-10T00:52:22;102932.94;;;5.66;100.00
1207;BME280;593;53.184;8.216;2023-02-10T00:54:48;102929.41;;;5.65;100.00
1207;BME280;593;53.184;8.216;2023-02-10T00:57:14;102926.06;;;5.63;100.00
1207;BME280;593;53.184;8.216;2023-02-10T00:59:39;102929.78;;;5.62;100.00
1207;BME280;593;53.184;8.216;2023-02-10T01:02:04;102915.81;;;5.59;100.00
1207;BME280;593;53.184;8.216;2023-02-10T01:04:30;102919.31;;;5.53;100.00
1207;BME280;593;53.184;8.216;2023-02-10T01:06:55;102917.63;;;5.52;100.00
1207;BME280;593;53.184;8.216;2023-02-10T01:09:21;102924.50;;;5.54;100.00
1207;BME280;593;53.184;8.216;2023-02-10T01:11:46;102928.63;;;5.50;100.00
1207;BME280;593;53.184;8.216;2023-02-10T01:14:12;102927.78;;;5.50;100.00
1207;BME280;593;53.184;8.216;2023-02-10T01:16:37;102931.50;;;5.49;100.00
1207;BME280;593;53.184;8.216;2023-02-10T01:19:03;102934.41;;;5.47;100.00
1207;BME280;593;53.184;8.216;2023-02-10T01:21:32;102934.78;;;5.44;100.00
1207;BME280;593;53.184;8.216;2023-02-10T01:23:58;102934.53;;;5.39;100.00
1207;BME280;593;53.184;8.216;2023-02-10T01:26:23;102931.38;;;5.36;100.00
1207;BME280;593;53.184;8.216;2023-02-10T01:28:48;102933.25;;;5.35;100.00
1207;BME280;593;53.184;8.216;2023-02-10T01:31:17;102938.66;;;5.35;100.00
1207;BME280;593;53.184;8.216;2023-02-10T01:33:43;102929.19;;;5.25;100.00
1207;BME280;593;53.184;8.216;2023-02-10T01:36:14;102943.78;;;5.30;100.00
1207;BME280;593;53.184;8.216;2023-02-10T01:38:40;102938.28;;;5.24;100.00
1207;BME280;593;53.184;8.216;2023-02-10T01:41:07;102936.00;;;5.21;100.00
1207;BME280;593;53.184;8.216;2023-02-10T01:46:38;102952.19;;;5.21;100.00
1207;BME280;593;53.184;8.216;2023-02-10T01:49:07;102952.56;;;5.17;100.00
1207;BME280;593;53.184;8.216;2023-02-10T01:51:38;102953.41;;;5.18;100.00
1207;BME280;593;53.184;8.216;2023-02-10T01:54:09;102956.69;;;5.13;100.00
1207;BME280;593;53.184;8.216;2023-02-10T01:56:38;102949.97;;;5.09;100.00
1207;BME280;593;53.184;8.216;2023-02-10T01:59:04;102958.69;;;5.11;100.00
1207;BME280;593;53.184;8.216;2023-02-10T02:01:30;102958.06;;;5.09;100.00
1207;BME280;593;53.184;8.216;2023-02-10T02:03:55;102956.59;;;5.07;100.00
1207;BME280;593;53.184;8.216;2023-02-10T02:06:21;102956.13;;;5.03;100.00
1207;BME280;593;53.184;8.216;2023-02-10T02:08:48;102940.34;;;5.00;100.00
1207;BME280;593;53.184;8.216;2023-02-10T02:11:40;102956.50;;;5.00;100.00
1207;BME280;593;53.184;8.216;2023-02-10T02:14:14;102952.34;;;4.98;100.00
1207;BME280;593;53.184;8.216;2023-02-10T02:16:55;102946.31;;;4.96;100.00
1207;BME280;593;53.184;8.216;2023-02-10T02:25:02;102942.66;;;4.89;100.00
1207;BME280;593;53.184;8.216;2023-02-10T02:28:11;102950.09;;;4.87;100.00
1207;BME280;593;53.184;8.216;2023-02-10T02:33:27;102942.78;;;4.81;100.00
1207;BME280;593;53.184;8.216;2023-02-10T02:36:00;102937.94;;;4.76;100.00
1207;BME280;593;53.184;8.216;2023-02-10T02:38:26;102935.16;;;4.70;100.00
1207;BME280;593;53.184;8.216;2023-02-10T02:40:52;102940.00;;;4.74;100.00
1207;BME280;593;53.184;8.216;2023-02-10T02:43:17;102931.47;;;4.71;100.00
1207;BME280;593;53.184;8.216;2023-02-10T02:45:49;102929.41;;;4.73;100.00
1207;BME280;593;53.184;8.216;2023-02-10T02:48:30;102926.06;;;4.71;100.00
1207;BME280;593;53.184;8.216;2023-02-10T02:51:09;102922.91;;;4.67;100.00
1207;BME280;593;53.184;8.216;2023-02-10T02:54:30;102921.22;;;4.66;100.00
1207;BME280;593;53.184;8.216;2023-02-10T02:57:11;102918.94;;;4.63;100.00
1207;BME280;593;53.184;8.216;2023-02-10T02:59:53;102916.59;;;4.60;100.00
1207;BME280;593;53.184;8.216;2023-02-10T03:02:21;102912.41;;;4.58;100.00
1207;BME280;593;53.184;8.216;2023-02-10T03:04:46;102908.25;;;4.55;100.00
1207;BME280;593;53.184;8.216;2023-02-10T03:07:13;102909.25;;;4.54;100.00
1207;BME280;593;53.184;8.216;2023-02-10T03:09:38;102920.03;;;4.54;100.00
1207;BME280;593;53.184;8.216;2023-02-10T03:12:04;102916.06;;;4.50;100.00
1207;BME280;593;53.184;8.216;2023-02-10T03:14:29;102916.31;;;4.55;100.00
1207;BME280;593;53.184;8.216;2023-02-10T03:16:55;102924.41;;;4.55;100.00
1207;BME280;593;53.184;8.216;2023-02-10T03:19:20;102912.50;;;4.49;100.00
1207;BME280;593;53.184;8.216;2023-02-10T03:21:45;102923.75;;;4.53;100.00
1207;BME280;593;53.184;8.216;2023-02-10T03:24:12;102906.56;;;4.54;100.00
1207;BME280;593;53.184;8.216;2023-02-10T03:26:38;102906.84;;;4.59;100.00
1207;BME280;593;53.184;8.216;2023-02-10T03:29:03;102911.56;;;4.57;100.00
1207;BME280;593;53.184;8.216;2023-02-10T03:31:29;102913.16;;;4.51;100.00
1207;BME280;593;53.184;8.216;2023-02-10T03:33:54;102921.06;;;4.53;100.00
1207;BME280;593;53.184;8.216;2023-02-10T03:36:19;102914.38;;;4.49;100.00
1207;BME280;593;53.184;8.216;2023-02-10T03:38:45;102913.16;;;4.51;100.00
1207;BME280;593;53.184;8.216;2023-02-10T03:41:11;102914.19;;;4.50;100.00
1207;BME280;593;53.184;8.216;2023-02-10T03:43:36;102912.88;;;4.46;100.00
1207;BME280;593;53.184;8.216;2023-02-10T03:46:03;102925.78;;;4.51;100.00
1207;BME280;593;53.184;8.216;2023-02-10T03:48:29;102922.81;;;4.46;100.00
1207;BME280;593;53.184;8.216;2023-02-10T03:51:03;102919.13;;;4.47;100.00
1207;BME280;593;53.184;8.216;2023-02-10T03:53:30;102909.19;;;4.47;100.00
1207;BME280;593;53.184;8.216;2023-02-10T03:55:56;102914.09;;;4.44;100.00
1207;BME280;593;53.184;8.216;2023-02-10T03:58:21;102928.19;;;4.46;100.00
1207;BME280;593;53.184;8.216;2023-02-10T04:00:47;102932.59;;;4.47;100.00
1207;BME280;593;53.184;8.216;2023-02-10T04:03:13;102934.63;;;4.45;100.00
1207;BME280;593;53.184;8.216;2023-02-10T04:05:39;102931.28;;;4.43;100.00
1207;BME280;593;53.184;8.216;2023-02-10T04:08:05;102931.94;;;4.45;100.00
1207;BME280;593;53.184;8.216;2023-02-10T04:10:30;102934.44;;;4.46;100.00
1207;BME280;593;53.184;8.216;2023-02-10T04:12:56;102926.06;;;4.41;100.00
1207;BME280;593;53.184;8.216;2023-02-10T04:15:21;102925.44;;;4.39;100.00
1207;BME280;593;53.184;8.216;2023-02-10T04:17:47;102930.81;;;4.39;100.00
1207;BME280;593;53.184;8.216;2023-02-10T04:20:13;102937.50;;;4.43;100.00
1207;BME280;593;53.184;8.216;2023-02-10T04:22:38;102937.69;;;4.42;100.00
1207;BME280;593;53.184;8.216;2023-02-10T04:25:04;102952.66;;;4.44;100.00
1207;BME280;593;53.184;8.216;2023-02-10T04:27:30;102951.53;;;4.39;100.00
1207;BME280;593;53.184;8.216;2023-02-10T04:29:55;102951.16;;;4.42;100.00
1207;BME280;593;53.184;8.216;2023-02-10T04:32:21;102951.34;;;4.40;100.00
1207;BME280;593;53.184;8.216;2023-02-10T04:34:46;102954.06;;;4.40;100.00
1207;BME280;593;53.184;8.216;2023-02-10T04:37:11;102952.72;;;4.36;100.00
1207;BME280;593;53.184;8.216;2023-02-10T04:39:37;102947.91;;;4.32;100.00
1207;BME280;593;53.184;8.216;2023-02-10T04:42:02;102963.34;;;4.38;100.00
1207;BME280;593;53.184;8.216;2023-02-10T04:44:28;102966.03;;;4.38;100.00
1207;BME280;593;53.184;8.216;2023-02-10T04:46:53;102958.97;;;4.37;100.00
1207;BME280;593;53.184;8.216;2023-02-10T04:49:19;102964.34;;;4.37;100.00
1207;BME280;593;53.184;8.216;2023-02-10T04:51:44;102966.41;;;4.35;100.00
1207;BME280;593;53.184;8.216;2023-02-10T04:54:09;102966.94;;;4.30;100.00
1207;BME280;593;53.184;8.216;2023-02-10T04:56:35;102971.31;;;4.31;100.00
1207;BME280;593;53.184;8.216;2023-02-10T04:59:00;102965.75;;;4.33;100.00
1207;BME280;593;53.184;8.216;2023-02-10T05:01:25;102961.72;;;4.29;100.00
1207;BME280;593;53.184;8.216;2023-02-10T05:03:51;102965.47;;;4.28;100.00
1207;BME280;593;53.184;8.216;2023-02-10T05:06:16;102974.84;;;4.32;100.00
1207;BME280;593;53.184;8.216;2023-02-10T05:08:42;102969.66;;;4.30;100.00
1207;BME280;593;53.184;8.216;2023-02-10T05:11:09;102965.47;;;4.28;100.00
1207;BME280;593;53.184;8.216;2023-02-10T05:13:35;102967.75;;;4.31;100.00
1207;BME280;593;53.184;8.216;2023-02-10T05:16:01;102967.03;;;4.22;100.00
1207;BME280;593;53.184;8.216;2023-02-10T05:18:32;102976.25;;;4.28;100.00
1207;BME280;593;53.184;8.216;2023-02-10T05:20:58;102972.50;;;4.29;100.00
1207;BME280;593;53.184;8.216;2023-02-10T05:23:24;102960.81;;;4.22;100.00
1207;BME280;593;53.184;8.216;2023-02-10T05:25:50;102977.25;;;4.27;100.00
1207;BME280;593;53.184;8.216;2023-02-10T05:28:15;102969.00;;;4.28;100.00
1207;BME280;593;53.184;8.216;2023-02-10T05:30:40;102957.75;;;4.25;100.00
1207;BME280;593;53.184;8.216;2023-02-10T05:33:06;102966.31;;;4.28;100.00
1207;BME280;593;53.184;8.216;2023-02-10T05:35:31;102959.44;;;4.26;100.00
1207;BME280;593;53.184;8.216;2023-02-10T05:37:56;102957.09;;;4.23;100.00
1207;BME280;593;53.184;8.216;2023-02-10T05:40:22;102964.81;;;4.26;100.00
1207;BME280;593;53.184;8.216;2023-02-10T05:42:49;102969.16;;;4.27;100.00
1207;BME280;593;53.184;8.216;2023-02-10T05:45:14;102979.28;;;4.25;100.00
1207;BME280;593;53.184;8.216;2023-02-10T05:47:40;102970.38;;;4.24;100.00
1207;BME280;593;53.184;8.216;2023-02-10T05:50:05;102981.78;;;4.26;100.00
1207;BME280;593;53.184;8.216;2023-02-10T05:52:31;102969.38;;;4.25;100.00
1207;BME280;593;53.184;8.216;2023-02-10T05:54:56;102973.25;;;4.23;100.00
1207;BME280;593;53.184;8.216;2023-02-10T05:57:22;102972.41;;;4.22;100.00
1207;BME280;593;53.184;8.216;2023-02-10T05:59:47;102984.19;;;4.21;100.00
1207;BME280;593;53.184;8.216;2023-02-10T06:02:12;102991.63;;;4.19;100.00
1207;BME280;593;53.184;8.216;2023-02-10T06:04:38;102995.53;;;4.17;100.00
1207;BME280;593;53.184;8.216;2023-02-10T06:07:03;103000.63;;;4.12;100.00
1207;BME280;593;53.184;8.216;2023-02-10T06:09:29;103004.34;;;4.11;100.00
1207;BME280;593;53.184;8.216;2023-02-10T06:11:55;103003.88;;;4.07;100.00
1207;BME280;593;53.184;8.216;2023-02-10T06:14:20;102993.56;;;4.11;100.00
1207;BME280;593;53.184;8.216;2023-02-10T06:16:45;103006.66;;;4.14;100.00
1207;BME280;593;53.184;8.216;2023-02-10T06:19:11;103007.84;;;4.11;100.00
1207;BME280;593;53.184;8.216;2023-02-10T06:21:36;102985.56;;;4.03;100.00
1207;BME280;593;53.184;8.216;2023-02-10T06:24:02;102998.56;;;4.14;100.00
1207;BME280;593;53.184;8.216;2023-02-10T06:26:27;102993.56;;;4.11;100.00
1207;BME280;593;53.184;8.216;2023-02-10T06:28:53;103000.25;;;4.15;100.00
1207;BME280;593;53.184;8.216;2023-02-10T06:31:19;102999.25;;;4.16;100.00
1207;BME280;593;53.184;8.216;2023-02-10T06:33:45;102994.22;;;4.13;100.00
1207;BME280;593;53.184;8.216;2023-02-10T06:36:10;102994.59;;;4.10;100.00
1207;BME280;593;53.184;8.216;2023-02-10T06:38:36;103002.47;;;4.11;100.00
1207;BME280;593;53.184;8.216;2023-02-10T06:41:03;103007.03;;;4.11;100.00
1207;BME280;593;53.184;8.216;2023-02-10T06:43:28;103008.69;;;4.12;100.00
1207;BME280;593;53.184;8.216;2023-02-10T06:45:53;103005.16;;;4.11;100.00
1207;BME280;593;53.184;8.216;2023-02-10T06:48:19;103015.88;;;4.19;100.00
1207;BME280;593;53.184;8.216;2023-02-10T06:50:45;103010.13;;;4.22;100.00
1207;BME280;593;53.184;8.216;2023-02-10T06:53:10;103012.47;;;4.25;100.00
1207;BME280;593;53.184;8.216;2023-02-10T06:55:35;103017.34;;;4.22;100.00
1207;BME280;593;53.184;8.216;2023-02-10T06:58:02;103007.13;;;4.17;100.00
1207;BME280;593;53.184;8.216;2023-02-10T07:00:29;103024.22;;;4.24;100.00
1207;BME280;593;53.184;8.216;2023-02-10T07:02:57;103007.78;;;4.19;100.00
1207;BME280;593;53.184;8.216;2023-02-10T07:05:23;103029.97;;;4.21;100.00
1207;BME280;593;53.184;8.216;2023-02-10T07:07:48;103028.47;;;4.19;100.00
1207;BME280;593;53.184;8.216;2023-02-10T07:10:16;103028.31;;;4.20;100.00
1207;BME280;593;53.184;8.216;2023-02-10T07:12:42;103030.47;;;4.25;100.00
1207;BME280;593;53.184;8.216;2023-02-10T07:15:08;103020.03;;;4.22;100.00
1207;BME280;593;53.184;8.216;2023-02-10T07:17:34;103029.81;;;4.23;100.00
1207;BME280;593;53.184;8.216;2023-02-10T07:20:01;103030.66;;;4.23;100.00
1207;BME280;593;53.184;8.216;2023-02-10T07:22:27;103035.84;;;4.25;100.00
1207;BME280;593;53.184;8.216;2023-02-10T07:24:52;103033.50;;;4.22;100.00
1207;BME280;593;53.184;8.216;2023-02-10T07:27:17;103032.16;;;4.26;100.00
1207;BME280;593;53.184;8.216;2023-02-10T07:29:43;103035.00;;;4.24;100.00
1207;BME280;593;53.184;8.216;2023-02-10T07:32:08;103023.59;;;4.22;100.00
1207;BME280;593;53.184;8.216;2023-02-10T07:34:33;103004.63;;;4.16;100.00
1207;BME280;593;53.184;8.216;2023-02-10T07:37:01;103027.22;;;4.29;100.00
1207;BME280;593;53.184;8.216;2023-02-10T07:39:26;103030.28;;;4.26;100.00
1207;BME280;593;53.184;8.216;2023-02-10T07:41:52;103032.25;;;4.32;100.00
1207;BME280;593;53.184;8.216;2023-02-10T07:44:18;103038.28;;;4.34;100.00
1207;BME280;593;53.184;8.216;2023-02-10T07:46:44;103039.97;;;4.35;100.00
1207;BME280;593;53.184;8.216;2023-02-10T07:49:09;103040.31;;;4.32;100.00
1207;BME280;593;53.184;8.216;2023-02-10T07:51:35;103028.91;;;4.30;100.00
1207;BME280;593;53.184;8.216;2023-02-10T07:54:01;103040.13;;;4.34;100.00
1207;BME280;593;53.184;8.216;2023-02-10T07:56:26;103032.41;;;4.31;100.00
1207;BME280;593;53.184;8.216;2023-02-10T07:58:51;103027.88;;;4.31;100.00
1207;BME280;593;53.184;8.216;2023-02-10T08:01:17;103031.88;;;4.35;100.00
1207;BME280;593;53.184;8.216;2023-02-10T08:03:42;103029.34;;;4.34;100.00
1207;BME280;593;53.184;8.216;2023-02-10T08:06:08;103040.06;;;4.42;100.00
1207;BME280;593;53.184;8.216;2023-02-10T08:08:34;103036.34;;;4.43;100.00
1207;BME280;593;53.184;8.216;2023-02-10T08:11:03;103047.59;;;4.46;100.00
1207;BME280;593;53.184;8.216;2023-02-10T08:13:28;103044.91;;;4.46;100.00
1207;BME280;593;53.184;8.216;2023-02-10T08:15:55;103037.00;;;4.45;100.00
1207;BME280;593;53.184;8.216;2023-02-10T08:18:20;103050.56;;;4.51;100.00
1207;BME280;593;53.184;8.216;2023-02-10T08:20:46;103043.31;;;4.52;100.00
1207;BME280;593;53.184;8.216;2023-02-10T08:23:14;103050.84;;;4.57;100.00
1207;BME280;593;53.184;8.216;2023-02-10T08:25:40;103040.91;;;4.57;100.00
1207;BME280;593;53.184;8.216;2023-02-10T08:28:05;103046.97;;;4.59;100.00
1207;BME280;593;53.184;8.216;2023-02-10T08:30:31;103046.59;;;4.62;100.00
1207;BME280;593;53.184;8.216;2023-02-10T08:32:57;103040.19;;;4.63;100.00
1207;BME280;593;53.184;8.216;2023-02-10T08:35:22;103041.50;;;4.67;100.00
1207;BME280;593;53.184;8.216;2023-02-10T08:37:48;103039.44;;;4.69;100.00
1207;BME280;593;53.184;8.216;2023-02-10T08:40:13;103035.09;;;4.68;100.00
1207;BME280;593;53.184;8.216;2023-02-10T08:42:38;103034.97;;;4.76;100.00
1207;BME280;593;53.184;8.216;2023-02-10T08:45:04;103038.44;;;4.85;100.00
1207;BME280;593;53.184;8.216;2023-02-10T08:47:30;103039.72;;;4.89;100.00
1207;BME280;593;53.184;8.216;2023-02-10T08:49:55;103037.50;;;4.92;100.00
1207;BME280;593;53.184;8.216;2023-02-10T08:52:22;103042.16;;;4.98;100.00
1207;BME280;593;53.184;8.216;2023-02-10T08:54:48;103040.56;;;5.04;100.00
1207;BME280;593;53.184;8.216;2023-02-10T08:57:13;103029.75;;;5.04;100.00
1207;BME280;593;53.184;8.216;2023-02-10T08:59:38;103036.28;;;5.09;100.00
1207;BME280;593;53.184;8.216;2023-02-10T09:02:04;103047.91;;;5.10;100.00
1207;BME280;593;53.184;8.216;2023-02-10T09:04:29;103049.03;;;5.15;100.00
1207;BME280;593;53.184;8.216;2023-02-10T09:06:54;103043.63;;;5.15;100.00
1207;BME280;593;53.184;8.216;2023-02-10T09:09:22;103050.94;;;5.22;100.00
1207;BME280;593;53.184;8.216;2023-02-10T09:11:50;103045.56;;;5.22;100.00
1207;BME280;593;53.184;8.216;2023-02-10T09:14:16;103042.97;;;5.28;100.00
1207;BME280;593;53.184;8.216;2023-02-10T09:16:41;103049.16;;;5.29;100.00
1207;BME280;593;53.184;8.216;2023-02-10T09:19:06;103050.66;;;5.31;100.00
1207;BME280;593;53.184;8.216;2023-02-10T09:21:32;103057.81;;;5.39;100.00
1207;BME280;593;53.184;8.216;2023-02-10T09:23:58;103050.38;;;5.41;100.00
1207;BME280;593;53.184;8.216;2023-02-10T09:26:23;103048.22;;;5.36;100.00
1207;BME280;593;53.184;8.216;2023-02-10T09:28:48;103061.44;;;5.46;100.00
1207;BME280;593;53.184;8.216;2023-02-10T09:31:14;103049.59;;;5.47;100.00
1207;BME280;593;53.184;8.216;2023-02-10T09:33:41;103057.97;;;5.52;100.00
1207;BME280;593;53.184;8.216;2023-02-10T09:36:18;103059.28;;;5.56;100.00
1207;BME280;593;53.184;8.216;2023-02-10T09:38:44;103057.66;;;5.61;100.00
1207;BME280;593;53.184;8.216;2023-02-10T09:52:17;103071.31;;;5.74;100.00
1207;BME280;593;53.184;8.216;2023-02-10T09:54:47;103078.66;;;5.80;100.00
1207;BME280;593;53.184;8.216;2023-02-10T09:57:17;103054.25;;;5.74;100.00
1207;BME280;593;53.184;8.216;2023-02-10T09:59:44;103072.97;;;5.90;100.00
1207;BME280;593;53.184;8.216;2023-02-10T10:02:39;103063.06;;;5.97;100.00
1207;BME280;593;53.184;8.216;2023-02-10T10:05:25;103063.44;;;5.94;100.00
1207;BME280;593;53.184;8.216;2023-02-10T10:07:56;103064.13;;;5.96;100.00
1207;BME280;593;53.184;8.216;2023-02-10T10:10:35;103051.00;;;5.93;100.00
1207;BME280;593;53.184;8.216;2023-02-10T10:13:13;103064.81;;;6.05;100.00
1207;BME280;593;53.184;8.216;2023-02-10T10:15:44;103075.22;;;6.08;100.00
1207;BME280;593;53.184;8.216;2023-02-10T10:18:26;103060.94;;;6.14;100.00
1207;BME280;593;53.184;8.216;2023-02-10T10:21:01;103064.47;;;6.14;100.00
1207;BME280;593;53.184;8.216;2023-02-10T10:23:50;103085.38;;;6.27;100.00
1207;BME280;593;53.184;8.216;2023-02-10T10:27:03;103077.91;;;6.29;100.00
1207;BME280;593;53.184;8.216;2023-02-10T10:29:51;103078.38;;;6.32;100.00
1207;BME280;593;53.184;8.216;2023-02-10T10:35:13;103082.59;;;6.41;100.00
1207;BME280;593;53.184;8.216;2023-02-10T10:37:40;103082.34;;;6.36;100.00
1207;BME280;593;53.184;8.216;2023-02-10T10:40:07;103091.16;;;6.45;100.00
1207;BME280;593;53.184;8.216;2023-02-10T10:43:08;103095.59;;;6.53;100.00
1207;BME280;593;53.184;8.216;2023-02-10T10:45:44;103088.31;;;6.53;100.00
1207;BME280;593;53.184;8.216;2023-02-10T10:48:16;103091.06;;;6.60;100.00
1207;BME280;593;53.184;8.216;2023-02-10T10:50:43;103082.78;;;6.61;100.00
1207;BME280;593;53.184;8.216;2023-02-10T10:53:37;103078.25;;;6.68;100.00
1207;BME280;593;53.184;8.216;2023-02-10T10:56:07;103078.88;;;6.70;100.00
1207;BME280;593;53.184;8.216;2023-02-10T10:58:46;103069.16;;;6.76;100.00
1207;BME280;593;53.184;8.216;2023-02-10T11:01:14;103066.06;;;6.85;100.00
1207;BME280;593;53.184;8.216;2023-02-10T11:03:40;103066.75;;;6.94;100.00
1207;BME280;593;53.184;8.216;2023-02-10T11:08:45;103067.03;;;7.05;100.00
1207;BME280;593;53.184;8.216;2023-02-10T11:11:14;103064.59;;;7.17;100.00
1207;BME280;593;53.184;8.216;2023-02-10T11:13:49;103056.75;;;7.29;100.00
1207;BME280;593;53.184;8.216;2023-02-10T11:16:16;103049.66;;;7.34;100.00
1207;BME280;593;53.184;8.216;2023-02-10T11:18:57;103048.66;;;7.42;100.00
1207;BME280;593;53.184;8.216;2023-02-10T11:21:38;103046.63;;;7.50;100.00
1207;BME280;593;53.184;8.216;2023-02-10T11:24:16;103039.34;;;7.51;100.00
1207;BME280;593;53.184;8.216;2023-02-10T11:27:14;103033.09;;;7.57;100.00
1207;BME280;593;53.184;8.216;2023-02-10T11:29:57;103037.47;;;7.64;100.00
1207;BME280;593;53.184;8.216;2023-02-10T11:32:25;103026.88;;;7.69;100.00
1207;BME280;593;53.184;8.216;2023-02-10T11:34:54;103035.03;;;7.76;100.00
1207;BME280;593;53.184;8.216;2023-02-10T11:37:30;103025.22;;;7.82;100.00
1207;BME280;593;53.184;8.216;2023-02-10T11:39:58;103023.16;;;7.84;100.00
1207;BME280;593;53.184;8.216;2023-02-10T11:42:34;103016.06;;;7.83;100.00
1207;BME280;593;53.184;8.216;2023-02-10T11:45:25;103001.06;;;7.87;100.00
1207;BME280;593;53.184;8.216;2023-02-10T11:48:13;103008.81;;;7.96;100.00
1207;BME280;593;53.184;8.216;2023-02-10T11:50:40;103001.69;;;8.02;100.00
1207;BME280;593;53.184;8.216;2023-02-10T11:53:13;102996.72;;;8.05;100.00
1207;BME280;593;53.184;8.216;2023-02-10T11:55:58;102982.31;;;8.05;100.00
1207;BME280;593;53.184;8.216;2023-02-10T12:04:15;102997.97;;;8.16;100.00
1207;BME280;593;53.184;8.216;2023-02-10T12:09:31;102995.66;;;8.13;100.00
1207;BME280;593;53.184;8.216;2023-02-10T12:26:10;102983.16;;;8.25;100.00
1207;BME280;593;53.184;8.216;2023-02-10T12:29:05;102983.78;;;8.27;100.00
1207;BME280;593;53.184;8.216;2023-02-10T12:36:57;102953.53;;;8.17;100.00
1207;BME280;593;53.184;8.216;2023-02-10T12:39:43;102975.69;;;8.33;100.00
1207;BME280;593;53.184;8.216;2023-02-10T12:42:34;102962.50;;;8.37;100.00
1207;BME280;593;53.184;8.216;2023-02-10T12:45:24;102958.78;;;8.38;100.00
1207;BME280;593;53.184;8.216;2023-02-10T12:48:57;102952.09;;;8.41;100.00
1207;BME280;593;53.184;8.216;2023-02-10T12:51:03;102957.94;;;8.44;100.00
1207;BME280;593;53.184;8.216;2023-02-10T12:53:38;102940.59;;;8.45;100.00
1207;BME280;593;53.184;8.216;2023-02-10T12:58:43;102928.69;;;8.53;100.00
1207;BME280;593;53.184;8.216;2023-02-10T13:01:15;102923.69;;;8.56;100.00
1207;BME280;593;53.184;8.216;2023-02-10T13:03:44;102921.16;;;8.61;100.00
1207;BME280;593;53.184;8.216;2023-02-10T13:06:20;102922.81;;;8.62;100.00
1207;BME280;593;53.184;8.216;2023-02-10T13:08:52;102915.75;;;8.61;100.00
1207;BME280;593;53.184;8.216;2023-02-10T13:13:49;102923.19;;;8.72;100.00
1207;BME280;593;53.184;8.216;2023-02-10T13:16:18;102913.59;;;8.76;100.00
1207;BME280;593;53.184;8.216;2023-02-10T13:19:07;102923.16;;;8.85;100.00
1207;BME280;593;53.184;8.216;2023-02-10T13:22:07;102925.63;;;8.87;100.00
1207;BME280;593;53.184;8.216;2023-02-10T13:24:41;102901.50;;;8.79;100.00
1207;BME280;593;53.184;8.216;2023-02-10T13:27:34;102918.94;;;8.89;100.00
1207;BME280;593;53.184;8.216;2023-02-10T13:35:23;102916.19;;;9.02;100.00
1207;BME280;593;53.184;8.216;2023-02-10T13:37:51;102920.16;;;9.00;100.00
1207;BME280;593;53.184;8.216;2023-02-10T13:40:24;102905.13;;;9.04;100.00
1207;BME280;593;53.184;8.216;2023-02-10T13:42:53;102898.63;;;9.05;100.00
1207;BME280;593;53.184;8.216;2023-02-10T13:45:29;102887.41;;;9.01;100.00
1207;BME280;593;53.184;8.216;2023-02-10T13:47:57;102884.69;;;9.01;100.00
1207;BME280;593;53.184;8.216;2023-02-10T13:50:31;102880.06;;;9.02;100.00
1207;BME280;593;53.184;8.216;2023-02-10T13:53:03;102891.69;;;9.16;100.00
1207;BME280;593;53.184;8.216;2023-02-10T14:00:45;102891.03;;;9.20;100.00
1207;BME280;593;53.184;8.216;2023-02-10T14:05:49;102887.28;;;9.21;100.00
1207;BME280;593;53.184;8.216;2023-02-10T14:13:56;102875.56;;;9.21;100.00
1207;BME280;593;53.184;8.216;2023-02-10T14:16:29;102888.28;;;9.27;100.00
1207;BME280;593;53.184;8.216;2023-02-10T14:19:00;102885.09;;;9.30;100.00
1207;BME280;593;53.184;8.216;2023-02-10T14:21:37;102879.06;;;9.28;100.00
1207;BME280;593;53.184;8.216;2023-02-10T14:24:12;102886.78;;;9.31;100.00
1207;BME280;593;53.184;8.216;2023-02-10T14:26:42;102884.25;;;9.36;100.00
1207;BME280;593;53.184;8.216;2023-02-10T14:29:17;102877.78;;;9.30;100.00
1207;BME280;593;53.184;8.216;2023-02-10T14:31:45;102890.72;;;9.35;100.00
1207;BME280;593;53.184;8.216;2023-02-10T14:36:53;102877.38;;;9.33;100.00
1207;BME280;593;53.184;8.216;2023-02-10T14:39:21;102873.44;;;9.29;100.00
1207;BME280;593;53.184;8.216;2023-02-10T14:41:47;102877.38;;;9.33;100.00
1207;BME280;593;53.184;8.216;2023-02-10T14:44:30;102880.91;;;9.34;100.00
1207;BME280;593;53.184;8.216;2023-02-10T14:46:58;102866.09;;;9.30;100.00
1207;BME280;593;53.184;8.216;2023-02-10T14:49:23;102863.00;;;9.26;100.00
1207;BME280;593;53.184;8.216;2023-02-10T14:51:50;102866.56;;;9.27;100.00
1207;BME280;593;53.184;8.216;2023-02-10T14:54:21;102867.78;;;9.31;100.00
1207;BME280;593;53.184;8.216;2023-02-10T14:56:57;102869.44;;;9.32;100.00